KE5HAM Weather Reports


Display with metric or nautical units.
time (UTC)temp
F
wind
direction
speed
MPH
gust
MPH
rain 1hr
in
rain 24hr
in
rain mn
in
humidity
%
barometer
mb
20190220150503 46 213 0.0 3.0 0.00 0.03 0.01 93 1017.9
20190220150004 46 220 0.0 3.0 0.00 0.03 0.01 95 1017.7
20190220145504 46 223 0.0 3.0 0.00 0.03 0.01 93 1017.6
20190220145004 46 215 0.0 0.0 0.00 0.03 0.01 95 1017.6
20190220144504 46 216 0.0 3.0 0.00 0.03 0.01 93 1017.5
20190220144004 46 222 0.0 3.0 0.00 0.03 0.01 95 1017.5
20190220143504 46 216 0.0 3.0 0.00 0.03 0.01 95 1017.3
20190220143004 46 215 0.0 0.0 0.00 0.03 0.01 95 1017.2
20190220142504 46 215 0.0 0.0 0.00 0.03 0.01 95 1017.2
20190220142004 46 215 0.0 3.0 0.00 0.03 0.01 95 1017.2
20190220141504 46 215 1.0 5.0 0.00 0.03 0.01 95 1017.0
20190220141004 45 215 0.0 3.0 0.00 0.03 0.01 95 1016.9
20190220140503 45 213 1.0 3.0 0.00 0.03 0.01 95 1016.7
20190220140003 45 209 0.0 0.0 0.00 0.03 0.01 95 1016.7
20190220135505 45 209 0.0 3.0 0.00 0.03 0.01 95 1016.5
20190220135004 45 208 0.0 0.0 0.00 0.03 0.01 95 1016.5
20190220134504 45 208 0.0 1.0 0.00 0.03 0.01 95 1016.5
20190220134004 45 208 0.0 3.0 0.00 0.03 0.01 95 1016.4
20190220133505 45 209 0.0 0.0 0.00 0.03 0.01 95 1016.2
20190220133004 45 209 1.0 5.0 0.00 0.03 0.01 95 1016.2
20190220132504 45 216 1.0 5.0 0.00 0.03 0.01 95 1016.1
20190220132004 45 216 1.0 6.0 0.00 0.03 0.01 95 1016.1
20190220131504 45 216 2.0 5.0 0.00 0.03 0.01 95 1015.9
20190220131004 45 217 1.0 5.0 0.00 0.03 0.01 95 1015.9
20190220130505 45 216 1.0 3.0 0.00 0.03 0.01 95 1015.8
20190220130004 45 217 1.0 6.0 0.00 0.03 0.01 95 1015.7
20190220125504 45 218 1.0 5.0 0.00 0.03 0.01 95 1015.7
20190220125004 45 217 1.0 6.0 0.00 0.03 0.01 95 1015.6
20190220124504 45 217 1.0 3.0 0.00 0.03 0.01 95 1015.4
20190220124004 45 221 0.0 6.0 0.00 0.03 0.01 95 1015.3
20190220123504 45 223 2.0 8.0 0.00 0.03 0.01 95 1015.2
20190220123004 45 217 0.0 0.0 0.00 0.03 0.01 95 1015.1
20190220122503 45 218 2.0 3.0 0.00 0.03 0.01 95 1015.0
20190220122004 45 218 0.0 3.0 0.00 0.03 0.01 95 1015.0
20190220121504 45 217 1.0 6.0 0.00 0.03 0.01 95 1014.9
20190220121004 45 216 0.0 0.0 0.00 0.03 0.01 95 1014.8
20190220120503 45 217 0.0 3.0 0.00 0.03 0.01 95 1014.7
20190220120004 45 216 0.0 3.0 0.00 0.03 0.01 95 1014.6
20190220115504 45 216 1.0 3.0 0.00 0.03 0.01 95 1014.6
20190220115004 45 216 0.0 0.0 0.00 0.03 0.01 95 1014.6
20190220114504 45 216 0.0 0.0 0.00 0.03 0.01 95 1014.5
20190220114004 45 215 0.0 1.0 0.00 0.03 0.01 95 1014.5
20190220113504 45 215 0.0 3.0 0.00 0.03 0.01 95 1014.5
20190220113007 45 216 0.0 3.0 0.00 0.03 0.01 95 1014.3
20190220112504 45 216 0.0 3.0 0.00 0.03 0.01 95 1014.4
20190220112003 45 223 1.0 5.0 0.00 0.03 0.01 95 1014.3
20190220111504 45 215 0.0 0.0 0.00 0.03 0.01 95 1014.3
20190220111004 45 215 0.0 0.0 0.00 0.03 0.01 95 1014.1
20190220110504 45 214 0.0 0.0 0.00 0.03 0.01 95 1014.1
20190220110003 45 214 0.0 0.0 0.00 0.03 0.01 95 1014.0
20190220105504 45 213 0.0 3.0 0.00 0.03 0.01 95 1014.0
20190220105004 45 213 1.0 5.0 0.00 0.03 0.01 95 1014.1
20190220104504 45 211 1.0 3.0 0.00 0.03 0.01 95 1014.0
20190220104004 45 213 0.0 3.0 0.00 0.03 0.01 95 1014.0
20190220103504 45 214 0.0 3.0 0.00 0.03 0.01 95 1014.0
20190220103004 45 213 1.0 5.0 0.00 0.03 0.01 95 1014.1
20190220102504 45 213 0.0 3.0 0.00 0.03 0.01 95 1013.9
20190220102004 45 212 0.0 3.0 0.00 0.03 0.01 95 1013.9
20190220101503 45 211 0.0 3.0 0.00 0.03 0.01 95 1013.8
20190220101004 45 217 1.0 5.0 0.00 0.03 0.01 95 1013.9
20190220100504 45 218 2.0 6.0 0.00 0.03 0.01 95 1013.7
20190220100004 45 221 3.0 7.0 0.00 0.03 0.01 95 1013.6
20190220095503 45 217 1.0 3.0 0.00 0.03 0.01 95 1013.7
20190220095004 45 216 2.0 5.0 0.00 0.03 0.01 95 1013.8
20190220094504 45 211 2.0 3.0 0.00 0.03 0.01 95 1013.8
20190220094004 45 211 1.0 5.0 0.00 0.03 0.01 95 1013.7
20190220093504 45 222 2.0 7.0 0.00 0.03 0.01 95 1013.8
20190220093004 45 223 2.0 6.0 0.00 0.03 0.01 95 1013.8
20190220092503 45 217 3.0 6.0 0.00 0.03 0.01 95 1014.0
20190220092004 45 214 3.0 6.0 0.00 0.03 0.01 95 1014.1
20190220091504 45 218 1.0 3.0 0.00 0.03 0.01 95 1014.2
20190220091004 45 217 2.0 6.0 0.00 0.03 0.01 95 1014.1
20190220090504 45 218 2.0 7.0 0.00 0.03 0.01 95 1013.9
20190220090004 45 214 2.0 6.0 0.00 0.03 0.01 95 1013.9
20190220085503 45 217 2.0 7.0 0.00 0.03 0.01 95 1013.7
20190220085004 45 212 3.0 9.0 0.00 0.03 0.01 95 1013.4
20190220084504 45 220 5.0 9.0 0.00 0.04 0.01 95 1013.3
20190220084004 45 214 2.0 7.0 0.00 0.04 0.01 95 1013.6
20190220083504 45 220 2.0 7.0 0.00 0.04 0.01 95 1013.7
20190220083005 45 214 1.0 5.0 0.00 0.04 0.01 95 1013.8
20190220082504 45 219 2.0 6.0 0.00 0.04 0.01 95 1013.8
20190220082004 45 217 1.0 5.0 0.00 0.04 0.01 95 1013.9
20190220081503 45 215 1.0 3.0 0.00 0.04 0.01 95 1013.9
20190220081004 45 216 1.0 5.0 0.00 0.04 0.01 95 1013.9
20190220080504 45 212 1.0 5.0 0.00 0.04 0.01 95 1014.0
20190220080004 45 213 2.0 3.0 0.00 0.04 0.01 95 1013.9
20190220075504 45 216 1.0 5.0 0.01 0.04 0.01 95 1013.9
20190220075004 45 216 1.0 6.0 0.01 0.04 0.01 95 1013.9
20190220074504 45 215 1.0 5.0 0.01 0.04 0.01 95 1013.7
20190220074004 45 215 2.0 6.0 0.01 0.04 0.01 95 1013.7
20190220073504 45 212 0.0 3.0 0.01 0.04 0.01 95 1013.6
20190220073004 45 211 0.0 5.0 0.01 0.04 0.01 95 1013.6
20190220072504 45 209 2.0 5.0 0.01 0.04 0.01 95 1013.4
20190220072004 45 205 3.0 8.0 0.01 0.04 0.01 95 1013.5
20190220071504 45 208 3.0 7.0 0.01 0.04 0.01 94 1013.4
20190220071004 45 209 1.0 5.0 0.01 0.04 0.01 93 1013.5
20190220070504 45 204 1.0 6.0 0.01 0.04 0.01 95 1013.5
20190220070004 46 216 2.0 7.0 0.01 0.04 0.01 95 1013.5
20190220065504 46 219 1.0 5.0 0.00 0.03 0.00 95 1013.4
20190220065004 46 217 0.0 3.0 0.00 0.03 0.00 93 1013.5
20190220064504 46 216 1.0 5.0 0.00 0.03 0.00 93 1013.4
20190220064004 46 217 2.0 6.0 0.00 0.03 0.00 93 1013.2
20190220063504 46 216 1.0 7.0 0.00 0.03 0.00 93 1013.2
20190220063004 46 217 3.0 8.0 0.00 0.03 0.00 93 1013.2
20190220062504 47 219 3.0 7.0 0.00 0.03 0.00 95 1013.1
20190220062003 47 218 2.0 8.0 0.00 0.03 0.00 93 1013.0
20190220061504 47 215 2.0 7.0 0.00 0.03 0.00 93 1013.1
20190220061004 47 218 1.0 5.0 0.00 0.03 0.00 93 1013.0
20190220060504 47 213 1.0 5.0 0.00 0.03 0.00 95 1013.0
20190220060007 48 214 1.0 6.0 0.00 0.03 0.00 95 1012.9
20190220055504 48 216 1.0 6.0 0.00 0.03 0.03 95 1012.8
20190220055004 48 215 1.0 6.0 0.00 0.03 0.03 95 1012.8
20190220054505 48 214 0.0 5.0 0.00 0.03 0.03 95 1012.8
20190220054003 48 215 0.0 5.0 0.00 0.03 0.03 95 1012.8
20190220053503 48 216 1.0 6.0 0.00 0.03 0.03 95 1012.7
20190220053004 48 213 1.0 3.0 0.00 0.03 0.03 95 1012.7
20190220052504 48 212 0.0 3.0 0.00 0.03 0.03 95 1012.6
20190220052004 48 213 1.0 6.0 0.00 0.03 0.03 95 1012.6
20190220051504 48 223 1.0 6.0 0.00 0.03 0.03 95 1012.7
20190220051004 48 217 0.0 0.0 0.00 0.03 0.03 93 1012.7
20190220050504 48 218 2.0 6.0 0.00 0.03 0.03 93 1012.5
20190220050004 48 217 1.0 5.0 0.00 0.03 0.03 93 1012.3
20190220045503 48 215 1.0 5.0 0.00 0.03 0.03 93 1012.3
20190220045003 48 214 1.0 5.0 0.00 0.03 0.03 93 1012.4
20190220044503 48 214 0.0 0.0 0.00 0.03 0.03 93 1012.4
20190220044004 48 214 0.0 3.0 0.00 0.03 0.03 93 1012.5
20190220043504 48 214 0.0 0.0 0.00 0.03 0.03 93 1012.3
20190220043004 49 214 0.0 2.0 0.00 0.03 0.03 93 1012.1
20190220042504 49 214 1.0 5.0 0.00 0.03 0.03 93 1012.0
20190220042005 49 214 1.0 3.0 0.00 0.03 0.03 93 1011.8
20190220041504 49 214 0.0 3.0 0.00 0.03 0.03 93 1011.8
20190220041005 49 214 0.0 0.0 0.00 0.03 0.03 93 1011.4
20190220040504 48 214 0.0 0.0 0.00 0.03 0.03 93 1011.4
20190220040004 48 214 0.0 0.0 0.00 0.03 0.03 93 1011.2
20190220035503 48 214 0.0 0.0 0.00 0.03 0.03 93 1011.2
20190220035004 48 214 0.0 0.0 0.00 0.03 0.03 93 1011.0
20190220034504 48 214 0.0 0.0 0.00 0.03 0.03 93 1010.7
20190220034004 48 214 0.0 0.0 0.00 0.03 0.03 93 1010.7
20190220033504 48 214 0.0 0.0 0.00 0.03 0.03 93 1010.6
20190220033004 48 214 0.0 0.0 0.00 0.03 0.03 93 1010.7
20190220032504 48 214 0.0 0.0 0.00 0.03 0.03 93 1010.4
20190220032004 49 213 0.0 0.0 0.00 0.03 0.03 93 1010.5
20190220031504 49 213 0.0 0.0 0.00 0.03 0.03 93 1010.6
20190220031005 49 213 0.0 0.0 0.00 0.03 0.03 93 1010.6
20190220030504 49 213 0.0 0.0 0.00 0.03 0.03 93 1010.6
20190220030004 49 213 0.0 0.0 0.00 0.03 0.03 93 1010.6
20190220025504 49 216 0.0 0.0 0.00 0.03 0.03 93 1010.7
20190220025004 49 216 0.0 2.0 0.00 0.03 0.03 93 1010.6
20190220024504 49 216 0.0 0.0 0.00 0.03 0.03 93 1010.5
20190220024004 49 216 0.0 0.0 0.00 0.03 0.03 93 1010.4
20190220023504 49 216 0.0 1.0 0.00 0.03 0.03 93 1010.3
20190220023004 49 216 0.0 0.0 0.00 0.03 0.03 93 1010.3
20190220022504 49 215 0.0 0.0 0.00 0.03 0.03 93 1010.0
20190220022006 49 222 0.0 0.0 0.00 0.03 0.03 93 1010.1
20190220021505 49 222 0.0 0.0 0.00 0.03 0.03 93 1010.0
20190220021004 49 222 0.0 0.0 0.00 0.03 0.03 93 1010.0
20190220020505 49 222 0.0 0.0 0.00 0.03 0.03 93 1010.0
20190220020005 49 222 0.0 0.0 0.00 0.03 0.03 93 1010.0
20190220015503 49 221 0.0 0.0 0.00 0.03 0.03 93 1010.0
20190220015004 49 234 0.0 0.0 0.00 0.03 0.03 93 1009.5
20190220014504 49 234 0.0 0.0 0.00 0.03 0.03 93 1009.6
20190220014004 49 228 0.0 2.0 0.00 0.03 0.03 93 1009.7
20190220013504 49 228 1.0 2.0 0.00 0.03 0.03 93 1009.9
20190220013005 49 225 0.0 1.0 0.00 0.03 0.03 93 1009.9
20190220012504 49 225 0.0 0.0 0.00 0.03 0.03 93 1009.9
20190220012004 49 227 0.0 0.0 0.00 0.03 0.03 93 1009.8
20190220011504 49 227 0.0 2.0 0.00 0.03 0.03 93 1009.7
20190220011004 49 216 0.0 0.0 0.00 0.03 0.03 93 1009.7
20190220010504 49 216 0.0 0.0 0.00 0.03 0.03 93 1009.7
20190220010005 49 216 0.0 0.0 0.00 0.03 0.03 93 1009.7
20190220005504 49 216 0.0 3.0 0.00 0.03 0.03 93 1009.5
20190220005004 49 212 0.0 3.0 0.00 0.03 0.03 92 1009.5
20190220004504 49 227 0.0 0.0 0.00 0.03 0.03 92 1009.9
20190220004004 49 226 0.0 1.0 0.00 0.03 0.03 92 1009.9
20190220003503 49 226 0.0 3.0 0.00 0.03 0.03 92 1009.9
20190220003004 49 218 0.0 0.0 0.00 0.03 0.03 92 1009.9
20190220002503 49 218 0.0 0.0 0.00 0.03 0.03 92 1009.9
20190220002004 49 218 0.0 1.0 0.00 0.03 0.03 92 1009.9
20190220001503 49 218 0.0 0.0 0.00 0.03 0.03 92 1009.9
20190220001004 49 219 0.0 0.0 0.00 0.03 0.03 92 1010.0
20190220000504 49 219 0.0 0.0 0.00 0.03 0.03 92 1010.0
20190220000004 49 219 0.0 0.0 0.00 0.03 0.03 92 1009.9
20190219235504 49 219 0.0 0.0 0.00 0.03 0.03 92 1009.9
20190219235003 49 219 0.0 0.0 0.00 0.03 0.03 92 1009.9
20190219234504 49 219 0.0 1.0 0.00 0.03 0.03 92 1009.9
20190219234004 49 219 1.0 3.0 0.00 0.03 0.03 92 1009.9
20190219233503 49 215 0.0 0.0 0.00 0.03 0.03 92 1009.8
20190219233004 49 215 0.0 0.0 0.00 0.03 0.03 92 1009.8
20190219232504 49 213 0.0 2.0 0.00 0.03 0.03 92 1009.9
20190219232003 50 215 0.0 0.0 0.00 0.03 0.03 92 1010.0
20190219231504 50 215 0.0 1.0 0.00 0.03 0.03 92 1009.9
20190219231004 50 214 0.0 1.0 0.00 0.03 0.03 92 1009.8
20190219230503 50 211 0.0 1.0 0.00 0.03 0.03 92 1009.9
20190219230004 50 218 2.0 3.0 0.00 0.03 0.03 92 1009.9
20190219225504 50 218 1.0 6.0 0.00 0.03 0.03 92 1009.9
20190219225004 50 211 2.0 6.0 0.00 0.03 0.03 92 1009.8
20190219224503 50 223 0.0 1.0 0.00 0.03 0.03 92 1009.8
20190219224003 50 219 0.0 1.0 0.00 0.03 0.03 92 1009.7
20190219223504 50 219 0.0 0.0 0.00 0.03 0.03 92 1009.6
20190219223004 50 219 0.0 0.0 0.00 0.03 0.03 91 1009.5
20190219222504 50 218 0.0 1.0 0.00 0.03 0.03 91 1009.6
20190219222004 50 220 0.0 3.0 0.00 0.03 0.03 91 1009.5
20190219221503 50 219 0.0 0.0 0.00 0.03 0.03 91 1009.4
20190219221003 50 218 0.0 2.0 0.00 0.03 0.03 92 1009.5
20190219220504 50 218 0.0 0.0 0.00 0.03 0.03 91 1009.6
20190219220004 50 217 0.0 0.0 0.00 0.03 0.03 91 1009.7
20190219215504 50 217 0.0 0.0 0.00 0.03 0.03 91 1009.5
20190219215004 50 217 0.0 0.0 0.00 0.03 0.03 91 1009.5
20190219214504 50 217 0.0 0.0 0.00 0.03 0.03 91 1009.5
20190219214004 50 217 0.0 0.0 0.00 0.03 0.03 91 1009.5
20190219213504 50 217 0.0 0.0 0.00 0.03 0.03 91 1009.7
20190219213004 50 217 0.0 0.0 0.00 0.03 0.03 91 1009.7
20190219212504 50 216 0.0 0.0 0.00 0.03 0.03 91 1009.8
20190219212004 51 216 0.0 0.0 0.00 0.03 0.03 91 1009.8
20190219211503 51 219 0.0 1.0 0.00 0.03 0.03 91 1009.9
20190219211004 50 232 0.0 0.0 0.00 0.03 0.03 91 1010.0
20190219210503 50 232 0.0 0.0 0.00 0.03 0.03 91 1010.0
20190219210004 50 230 0.0 0.0 0.00 0.03 0.03 91 1010.1
20190219205503 50 229 0.0 0.0 0.00 0.03 0.03 91 1010.2
20190219205004 50 219 0.0 0.0 0.00 0.03 0.03 90 1010.7
20190219204504 50 220 0.0 1.0 0.00 0.03 0.03 90 1010.6
20190219204004 50 219 0.0 0.0 0.00 0.03 0.03 90 1010.7
20190219203504 50 219 0.0 0.0 0.00 0.03 0.03 90 1010.7
20190219203005 50 219 0.0 1.0 0.00 0.03 0.03 90 1010.7
20190219202504 51 219 0.0 0.0 0.00 0.03 0.03 90 1010.8
20190219202004 51 219 0.0 2.0 0.00 0.03 0.03 90 1010.8
20190219201504 51 213 0.0 2.0 0.00 0.03 0.03 90 1011.0
20190219201004 51 223 0.0 0.0 0.00 0.03 0.03 90 1010.9
20190219200504 51 223 0.0 1.0 0.01 0.03 0.03 90 1011.0
20190219200005 51 223 0.0 2.0 0.01 0.03 0.03 90 1011.1
20190219195504 51 219 0.0 0.0 0.01 0.03 0.03 90 1011.4
20190219195004 51 214 0.0 0.0 0.01 0.03 0.03 90 1011.6
20190219194504 51 213 0.0 3.0 0.01 0.03 0.03 90 1011.6
20190219194004 51 211 0.0 0.0 0.01 0.03 0.03 90 1011.8
20190219193504 51 246 0.0 2.0 0.01 0.03 0.03 90 1012.0
20190219193004 51 222 0.0 2.0 0.01 0.03 0.03 89 1012.0
20190219192503 51 223 0.0 3.0 0.01 0.03 0.03 89 1012.2
20190219192004 51 225 0.0 1.0 0.01 0.03 0.03 89 1012.3
20190219191504 51 225 0.0 1.0 0.01 0.03 0.03 89 1012.3
20190219191004 51 225 0.0 0.0 0.01 0.03 0.03 89 1012.4
20190219190504 51 225 0.0 3.0 0.00 0.02 0.02 89 1012.7
20190219190004 51 227 0.0 1.0 0.00 0.02 0.02 89 1012.8
20190219185504 51 228 0.0 0.0 0.00 0.02 0.02 89 1013.0
20190219185004 51 229 0.0 0.0 0.00 0.02 0.02 89 1013.2
20190219184504 51 229 0.0 1.0 0.00 0.02 0.02 89 1013.2
20190219184004 51 0 0.0 0.0 0.00 0.02 0.02 89 1013.5
20190219183504 51 229 0.0 0.0 0.00 0.02 0.02 89 1013.5
20190219183004 51 226 0.0 1.0 0.00 0.02 0.02 88 1013.6
20190219182503 51 218 0.0 2.0 0.00 0.02 0.02 88 1013.7
20190219182004 51 217 0.0 0.0 0.00 0.02 0.02 88 1014.0
20190219181503 51 234 0.0 1.0 0.01 0.02 0.02 88 1014.2
20190219181005 51 238 0.0 0.0 0.01 0.02 0.02 88 1014.2
20190219180504 51 260 0.0 0.0 0.01 0.02 0.02 88 1014.2
20190219180003 51 260 0.0 0.0 0.01 0.02 0.02 88 1014.3
20190219175503 51 260 0.0 0.0 0.01 0.02 0.02 88 1014.6
20190219175005 51 259 0.0 0.0 0.01 0.02 0.02 87 1014.8
20190219174504 51 259 0.0 0.0 0.01 0.02 0.02 88 1014.8
20190219174004 51 306 0.0 0.0 0.01 0.02 0.02 87 1014.9
20190219173504 51 308 0.0 0.0 0.01 0.02 0.02 87 1015.1
20190219173005 51 308 0.0 0.0 0.01 0.02 0.02 87 1015.3
20190219172503 51 308 0.0 0.0 0.01 0.02 0.02 87 1015.3
20190219172004 51 310 0.0 0.0 0.01 0.02 0.02 87 1015.2
20190219171504 51 311 0.0 0.0 0.00 0.01 0.01 86 1015.2
20190219171004 51 311 0.0 0.0 0.00 0.01 0.01 86 1015.3
20190219170504 51 311 0.0 0.0 0.00 0.01 0.01 86 1015.5
20190219170004 51 312 0.0 0.0 0.00 0.01 0.01 86 1015.5
20190219165503 51 312 0.0 0.0 0.00 0.01 0.01 86 1015.6
20190219165004 51 312 0.0 0.0 0.00 0.01 0.01 86 1015.7
20190219164504 51 318 0.0 0.0 0.00 0.01 0.01 86 1015.8
20190219164005 51 321 0.0 0.0 0.00 0.01 0.01 86 1015.8
20190219163505 51 321 0.0 0.0 0.00 0.01 0.01 86 1015.8
20190219163005 51 321 0.0 0.0 0.00 0.01 0.01 86 1015.9
20190219162504 51 321 0.0 0.0 0.00 0.01 0.01 86 1015.9
20190219162004 51 321 0.0 0.0 0.00 0.01 0.01 85 1016.0
20190219161504 51 321 0.0 0.0 0.00 0.01 0.01 85 1016.0
20190219161005 51 319 0.0 0.0 0.00 0.01 0.01 85 1016.0
20190219160503 51 319 0.0 0.0 0.00 0.01 0.01 84 1016.1
20190219160004 51 319 0.0 0.0 0.00 0.01 0.01 84 1016.1
20190219155504 51 319 0.0 0.0 0.00 0.01 0.01 84 1016.1
20190219155004 51 319 0.0 0.0 0.00 0.01 0.01 84 1016.2
20190219154504 51 319 0.0 0.0 0.00 0.01 0.01 84 1016.1
20190219154004 51 319 0.0 0.0 0.00 0.01 0.01 83 1016.2
20190219153504 52 319 0.0 0.0 0.00 0.01 0.01 83 1016.2
20190219153004 52 319 0.0 0.0 0.00 0.01 0.01 83 1016.1
20190219152503 52 304 0.0 1.0 0.00 0.01 0.01 83 1016.0
20190219152004 52 288 0.0 1.0 0.00 0.01 0.01 83 1016.1
20190219151504 52 284 0.0 0.0 0.00 0.01 0.01 82 1016.1
20190219151004 52 284 0.0 1.0 0.00 0.01 0.01 82 1016.2